sensor_id;sensor_type;location;lat;lon;timestamp;P1;durP1;ratioP1;P2;durP2;ratioP2
10063;SDS011;5071;52.360;13.134;2023-01-19T00:00:32;10.47;;;6.00;;
10063;SDS011;5071;52.360;13.134;2023-01-19T00:05:35;14.17;;;6.50;;
10063;SDS011;5071;52.360;13.134;2023-01-19T00:10:38;9.33;;;6.10;;
10063;SDS011;5071;52.360;13.134;2023-01-19T00:15:40;10.40;;;6.33;;
10063;SDS011;5071;52.360;13.134;2023-01-19T00:20:43;10.57;;;5.97;;
10063;SDS011;5071;52.360;13.134;2023-01-19T00:25:47;10.80;;;5.47;;
10063;SDS011;5071;52.360;13.134;2023-01-19T00:30:49;15.77;;;5.67;;
10063;SDS011;5071;52.360;13.134;2023-01-19T00:35:51;8.70;;;5.27;;
10063;SDS011;5071;52.360;13.134;2023-01-19T00:40:55;8.23;;;4.47;;
10063;SDS011;5071;52.360;13.134;2023-01-19T00:45:57;10.10;;;5.47;;
10063;SDS011;5071;52.360;13.134;2023-01-19T00:50:59;12.17;;;5.00;;
10063;SDS011;5071;52.360;13.134;2023-01-19T00:56:03;8.57;;;3.97;;
10063;SDS011;5071;52.360;13.134;2023-01-19T01:01:05;9.43;;;5.97;;
10063;SDS011;5071;52.360;13.134;2023-01-19T01:06:08;8.60;;;4.90;;
10063;SDS011;5071;52.360;13.134;2023-01-19T01:11:11;9.07;;;4.80;;
10063;SDS011;5071;52.360;13.134;2023-01-19T01:16:14;10.00;;;5.13;;
10063;SDS011;5071;52.360;13.134;2023-01-19T01:21:16;8.93;;;5.20;;
10063;SDS011;5071;52.360;13.134;2023-01-19T01:26:20;8.27;;;4.60;;
10063;SDS011;5071;52.360;13.134;2023-01-19T01:31:22;8.57;;;5.57;;
10063;SDS011;5071;52.360;13.134;2023-01-19T01:36:25;8.47;;;4.63;;
10063;SDS011;5071;52.360;13.134;2023-01-19T01:41:28;7.47;;;4.73;;
10063;SDS011;5071;52.360;13.134;2023-01-19T01:46:31;8.13;;;4.57;;
10063;SDS011;5071;52.360;13.134;2023-01-19T01:51:33;11.07;;;5.37;;
10063;SDS011;5071;52.360;13.134;2023-01-19T01:56:42;6.10;;;4.20;;
10063;SDS011;5071;52.360;13.134;2023-01-19T02:01:46;9.20;;;4.57;;
10063;SDS011;5071;52.360;13.134;2023-01-19T02:06:48;9.03;;;4.83;;
10063;SDS011;5071;52.360;13.134;2023-01-19T02:11:52;9.73;;;4.87;;
10063;SDS011;5071;52.360;13.134;2023-01-19T02:16:55;8.40;;;4.33;;
10063;SDS011;5071;52.360;13.134;2023-01-19T02:21:58;9.10;;;4.57;;
10063;SDS011;5071;52.360;13.134;2023-01-19T02:27:07;7.37;;;4.50;;
10063;SDS011;5071;52.360;13.134;2023-01-19T02:32:10;11.50;;;5.33;;
10063;SDS011;5071;52.360;13.134;2023-01-19T02:37:12;9.83;;;5.57;;
10063;SDS011;5071;52.360;13.134;2023-01-19T02:42:20;7.97;;;5.50;;
10063;SDS011;5071;52.360;13.134;2023-01-19T02:47:27;15.23;;;6.30;;
10063;SDS011;5071;52.360;13.134;2023-01-19T02:52:38;14.87;;;6.70;;
10063;SDS011;5071;52.360;13.134;2023-01-19T02:57:50;10.83;;;6.20;;
10063;SDS011;5071;52.360;13.134;2023-01-19T03:03:05;13.70;;;6.80;;
10063;SDS011;5071;52.360;13.134;2023-01-19T03:08:20;11.83;;;7.17;;
10063;SDS011;5071;52.360;13.134;2023-01-19T03:13:35;12.13;;;6.90;;
10063;SDS011;5071;52.360;13.134;2023-01-19T03:18:46;13.27;;;6.47;;
10063;SDS011;5071;52.360;13.134;2023-01-19T03:23:52;10.07;;;6.57;;
10063;SDS011;5071;52.360;13.134;2023-01-19T03:29:01;15.20;;;7.07;;
10063;SDS011;5071;52.360;13.134;2023-01-19T03:34:04;13.50;;;6.53;;
10063;SDS011;5071;52.360;13.134;2023-01-19T03:39:08;10.27;;;6.63;;
10063;SDS011;5071;52.360;13.134;2023-01-19T03:44:15;19.10;;;7.17;;
10063;SDS011;5071;52.360;13.134;2023-01-19T03:49:17;13.17;;;8.00;;
10063;SDS011;5071;52.360;13.134;2023-01-19T03:54:20;13.73;;;7.13;;
10063;SDS011;5071;52.360;13.134;2023-01-19T03:59:23;12.37;;;6.70;;
10063;SDS011;5071;52.360;13.134;2023-01-19T04:04:25;10.47;;;6.47;;
10063;SDS011;5071;52.360;13.134;2023-01-19T04:09:27;11.33;;;6.83;;
10063;SDS011;5071;52.360;13.134;2023-01-19T04:14:31;20.87;;;8.50;;
10063;SDS011;5071;52.360;13.134;2023-01-19T04:19:33;14.83;;;8.43;;
10063;SDS011;5071;52.360;13.134;2023-01-19T04:24:35;18.23;;;7.83;;
10063;SDS011;5071;52.360;13.134;2023-01-19T04:29:39;22.90;;;7.90;;
10063;SDS011;5071;52.360;13.134;2023-01-19T04:34:41;12.43;;;7.40;;
10063;SDS011;5071;52.360;13.134;2023-01-19T04:39:43;13.70;;;7.70;;
10063;SDS011;5071;52.360;13.134;2023-01-19T04:44:47;12.77;;;7.50;;
10063;SDS011;5071;52.360;13.134;2023-01-19T04:49:49;13.37;;;7.07;;
10063;SDS011;5071;52.360;13.134;2023-01-19T04:54:51;16.13;;;7.93;;
10063;SDS011;5071;52.360;13.134;2023-01-19T04:59:55;13.20;;;7.40;;
10063;SDS011;5071;52.360;13.134;2023-01-19T05:04:57;15.10;;;8.80;;
10063;SDS011;5071;52.360;13.134;2023-01-19T05:09:59;24.00;;;8.10;;
10063;SDS011;5071;52.360;13.134;2023-01-19T05:15:03;15.10;;;7.13;;
10063;SDS011;5071;52.360;13.134;2023-01-19T05:20:07;14.00;;;7.43;;
10063;SDS011;5071;52.360;13.134;2023-01-19T05:25:10;15.43;;;8.80;;
10063;SDS011;5071;52.360;13.134;2023-01-19T05:30:14;15.23;;;7.70;;
10063;SDS011;5071;52.360;13.134;2023-01-19T05:35:17;18.47;;;8.87;;
10063;SDS011;5071;52.360;13.134;2023-01-19T05:40:32;20.03;;;8.37;;
10063;SDS011;5071;52.360;13.134;2023-01-19T05:45:35;15.13;;;8.87;;
10063;SDS011;5071;52.360;13.134;2023-01-19T05:50:38;13.10;;;8.30;;
10063;SDS011;5071;52.360;13.134;2023-01-19T05:55:40;16.93;;;8.27;;
10063;SDS011;5071;52.360;13.134;2023-01-19T06:00:43;13.87;;;7.80;;
10063;SDS011;5071;52.360;13.134;2023-01-19T06:05:46;14.80;;;8.50;;
10063;SDS011;5071;52.360;13.134;2023-01-19T06:10:48;15.87;;;9.73;;
10063;SDS011;5071;52.360;13.134;2023-01-19T06:15:56;17.00;;;8.87;;
10063;SDS011;5071;52.360;13.134;2023-01-19T06:21:01;16.57;;;9.53;;
10063;SDS011;5071;52.360;13.134;2023-01-19T06:26:04;15.40;;;8.30;;
10063;SDS011;5071;52.360;13.134;2023-01-19T06:31:07;16.37;;;8.63;;
10063;SDS011;5071;52.360;13.134;2023-01-19T06:36:10;11.80;;;8.03;;
10063;SDS011;5071;52.360;13.134;2023-01-19T06:41:12;15.37;;;8.53;;
10063;SDS011;5071;52.360;13.134;2023-01-19T06:46:15;20.70;;;9.23;;
10063;SDS011;5071;52.360;13.134;2023-01-19T06:51:17;14.50;;;8.03;;
10063;SDS011;5071;52.360;13.134;2023-01-19T06:56:19;14.00;;;7.00;;
10063;SDS011;5071;52.360;13.134;2023-01-19T07:01:23;12.00;;;6.83;;
10063;SDS011;5071;52.360;13.134;2023-01-19T07:06:25;13.70;;;7.07;;
10063;SDS011;5071;52.360;13.134;2023-01-19T07:11:27;16.43;;;7.57;;
10063;SDS011;5071;52.360;13.134;2023-01-19T07:16:34;11.57;;;5.93;;
10063;SDS011;5071;52.360;13.134;2023-01-19T07:21:37;9.83;;;5.37;;
10063;SDS011;5071;52.360;13.134;2023-01-19T07:26:38;8.17;;;5.33;;
10063;SDS011;5071;52.360;13.134;2023-01-19T07:31:41;9.30;;;5.87;;
10063;SDS011;5071;52.360;13.134;2023-01-19T07:36:43;11.17;;;7.03;;
10063;SDS011;5071;52.360;13.134;2023-01-19T07:41:46;10.13;;;5.87;;
10063;SDS011;5071;52.360;13.134;2023-01-19T07:46:50;10.30;;;5.67;;
10063;SDS011;5071;52.360;13.134;2023-01-19T07:51:51;8.83;;;5.80;;
10063;SDS011;5071;52.360;13.134;2023-01-19T07:56:53;9.97;;;6.40;;
10063;SDS011;5071;52.360;13.134;2023-01-19T08:01:57;8.13;;;4.70;;
10063;SDS011;5071;52.360;13.134;2023-01-19T08:06:59;10.97;;;5.30;;
10063;SDS011;5071;52.360;13.134;2023-01-19T08:12:00;11.50;;;5.80;;
10063;SDS011;5071;52.360;13.134;2023-01-19T08:17:05;6.97;;;4.60;;
10063;SDS011;5071;52.360;13.134;2023-01-19T08:22:07;7.43;;;5.20;;
10063;SDS011;5071;52.360;13.134;2023-01-19T08:27:10;11.60;;;6.17;;
10063;SDS011;5071;52.360;13.134;2023-01-19T08:32:16;7.03;;;5.00;;
10063;SDS011;5071;52.360;13.134;2023-01-19T08:37:18;7.40;;;5.27;;
10063;SDS011;5071;52.360;13.134;2023-01-19T08:42:20;10.17;;;5.77;;
10063;SDS011;5071;52.360;13.134;2023-01-19T08:47:24;9.60;;;4.53;;
10063;SDS011;5071;52.360;13.134;2023-01-19T08:52:26;8.70;;;5.10;;
10063;SDS011;5071;52.360;13.134;2023-01-19T08:57:28;6.87;;;5.00;;
10063;SDS011;5071;52.360;13.134;2023-01-19T09:02:31;11.27;;;4.53;;
10063;SDS011;5071;52.360;13.134;2023-01-19T09:07:33;7.43;;;4.77;;
10063;SDS011;5071;52.360;13.134;2023-01-19T09:12:36;10.83;;;5.03;;
10063;SDS011;5071;52.360;13.134;2023-01-19T09:17:40;9.93;;;4.53;;
10063;SDS011;5071;52.360;13.134;2023-01-19T09:22:42;7.13;;;3.93;;
10063;SDS011;5071;52.360;13.134;2023-01-19T09:27:45;8.40;;;4.90;;
10063;SDS011;5071;52.360;13.134;2023-01-19T09:32:48;6.53;;;4.47;;
10063;SDS011;5071;52.360;13.134;2023-01-19T09:37:50;7.83;;;4.07;;
10063;SDS011;5071;52.360;13.134;2023-01-19T09:42:54;7.77;;;4.03;;
10063;SDS011;5071;52.360;13.134;2023-01-19T09:47:58;5.50;;;3.93;;
10063;SDS011;5071;52.360;13.134;2023-01-19T09:53:08;5.50;;;4.57;;
10063;SDS011;5071;52.360;13.134;2023-01-19T09:58:17;11.27;;;4.67;;
10063;SDS011;5071;52.360;13.134;2023-01-19T10:03:20;7.03;;;4.33;;
10063;SDS011;5071;52.360;13.134;2023-01-19T10:08:25;7.73;;;4.03;;
10063;SDS011;5071;52.360;13.134;2023-01-19T10:13:36;7.33;;;4.07;;
10063;SDS011;5071;52.360;13.134;2023-01-19T10:18:46;9.67;;;4.60;;
10063;SDS011;5071;52.360;13.134;2023-01-19T10:23:50;5.43;;;4.70;;
10063;SDS011;5071;52.360;13.134;2023-01-19T10:28:56;5.20;;;3.43;;
10063;SDS011;5071;52.360;13.134;2023-01-19T10:34:03;5.90;;;3.47;;
10063;SDS011;5071;52.360;13.134;2023-01-19T10:39:06;4.90;;;3.07;;
10063;SDS011;5071;52.360;13.134;2023-01-19T10:44:14;5.40;;;3.13;;
10063;SDS011;5071;52.360;13.134;2023-01-19T10:49:27;5.00;;;3.33;;
10063;SDS011;5071;52.360;13.134;2023-01-19T10:54:30;6.07;;;3.60;;
10063;SDS011;5071;52.360;13.134;2023-01-19T10:59:35;6.57;;;3.23;;
10063;SDS011;5071;52.360;13.134;2023-01-19T11:04:40;4.57;;;3.40;;
10063;SDS011;5071;52.360;13.134;2023-01-19T11:09:42;6.10;;;3.20;;
10063;SDS011;5071;52.360;13.134;2023-01-19T11:14:44;5.67;;;3.67;;
10063;SDS011;5071;52.360;13.134;2023-01-19T11:19:55;4.77;;;3.37;;
10063;SDS011;5071;52.360;13.134;2023-01-19T11:25:00;6.83;;;3.50;;
10063;SDS011;5071;52.360;13.134;2023-01-19T11:30:06;5.10;;;3.40;;
10063;SDS011;5071;52.360;13.134;2023-01-19T11:35:30;6.57;;;3.40;;
10063;SDS011;5071;52.360;13.134;2023-01-19T11:40:35;6.53;;;3.27;;
10063;SDS011;5071;52.360;13.134;2023-01-19T11:45:37;5.63;;;3.57;;
10063;SDS011;5071;52.360;13.134;2023-01-19T11:50:42;6.73;;;3.23;;
10063;SDS011;5071;52.360;13.134;2023-01-19T11:55:46;3.87;;;3.33;;
10063;SDS011;5071;52.360;13.134;2023-01-19T12:00:53;5.87;;;4.40;;
10063;SDS011;5071;52.360;13.134;2023-01-19T12:06:04;8.53;;;4.77;;
10063;SDS011;5071;52.360;13.134;2023-01-19T12:11:10;5.33;;;3.70;;
10063;SDS011;5071;52.360;13.134;2023-01-19T12:16:18;7.30;;;5.20;;
10063;SDS011;5071;52.360;13.134;2023-01-19T12:21:22;7.90;;;3.90;;
10063;SDS011;5071;52.360;13.134;2023-01-19T12:26:26;9.57;;;5.30;;
10063;SDS011;5071;52.360;13.134;2023-01-19T12:31:31;6.60;;;4.00;;
10063;SDS011;5071;52.360;13.134;2023-01-19T12:36:35;7.27;;;4.17;;
10063;SDS011;5071;52.360;13.134;2023-01-19T12:41:38;8.00;;;3.70;;
10063;SDS011;5071;52.360;13.134;2023-01-19T12:46:42;6.10;;;4.17;;
10063;SDS011;5071;52.360;13.134;2023-01-19T12:51:47;8.17;;;4.23;;
10063;SDS011;5071;52.360;13.134;2023-01-19T12:56:54;5.73;;;3.73;;
10063;SDS011;5071;52.360;13.134;2023-01-19T13:13:23;6.53;;;3.73;;
10063;SDS011;5071;52.360;13.134;2023-01-19T13:18:27;6.33;;;4.23;;
10063;SDS011;5071;52.360;13.134;2023-01-19T13:23:50;6.30;;;4.00;;
10063;SDS011;5071;52.360;13.134;2023-01-19T13:28:54;10.33;;;4.60;;
10063;SDS011;5071;52.360;13.134;2023-01-19T13:33:59;7.13;;;4.30;;
10063;SDS011;5071;52.360;13.134;2023-01-19T13:39:04;7.87;;;4.50;;
10063;SDS011;5071;52.360;13.134;2023-01-19T13:44:13;5.70;;;4.23;;
10063;SDS011;5071;52.360;13.134;2023-01-19T13:49:23;8.10;;;4.87;;
10063;SDS011;5071;52.360;13.134;2023-01-19T13:54:31;5.90;;;3.87;;
10063;SDS011;5071;52.360;13.134;2023-01-19T13:59:34;7.53;;;4.50;;
10063;SDS011;5071;52.360;13.134;2023-01-19T14:04:36;6.30;;;4.33;;
10063;SDS011;5071;52.360;13.134;2023-01-19T14:09:39;9.00;;;4.80;;
10063;SDS011;5071;52.360;13.134;2023-01-19T14:14:41;11.27;;;4.70;;
10063;SDS011;5071;52.360;13.134;2023-01-19T14:19:47;9.77;;;5.47;;
10063;SDS011;5071;52.360;13.134;2023-01-19T14:24:52;7.97;;;4.97;;
10063;SDS011;5071;52.360;13.134;2023-01-19T14:29:54;9.23;;;5.00;;
10063;SDS011;5071;52.360;13.134;2023-01-19T14:35:22;10.53;;;4.97;;
10063;SDS011;5071;52.360;13.134;2023-01-19T14:40:26;8.33;;;5.63;;
10063;SDS011;5071;52.360;13.134;2023-01-19T14:45:29;11.37;;;4.67;;
10063;SDS011;5071;52.360;13.134;2023-01-19T14:50:35;9.97;;;6.10;;
10063;SDS011;5071;52.360;13.134;2023-01-19T14:55:44;11.20;;;5.33;;
10063;SDS011;5071;52.360;13.134;2023-01-19T15:00:48;12.00;;;5.47;;
10063;SDS011;5071;52.360;13.134;2023-01-19T15:05:51;10.47;;;6.60;;
10063;SDS011;5071;52.360;13.134;2023-01-19T15:10:57;10.07;;;6.00;;
10063;SDS011;5071;52.360;13.134;2023-01-19T15:16:04;12.30;;;7.03;;
10063;SDS011;5071;52.360;13.134;2023-01-19T15:21:07;8.60;;;5.57;;
10063;SDS011;5071;52.360;13.134;2023-01-19T15:26:14;12.77;;;6.60;;
10063;SDS011;5071;52.360;13.134;2023-01-19T15:31:18;10.27;;;6.17;;
10063;SDS011;5071;52.360;13.134;2023-01-19T15:36:24;8.40;;;6.03;;
10063;SDS011;5071;52.360;13.134;2023-01-19T15:41:28;12.97;;;7.43;;
10063;SDS011;5071;52.360;13.134;2023-01-19T15:46:29;9.70;;;5.63;;
10063;SDS011;5071;52.360;13.134;2023-01-19T15:51:31;11.33;;;6.33;;
10063;SDS011;5071;52.360;13.134;2023-01-19T15:56:34;10.03;;;5.70;;
10063;SDS011;5071;52.360;13.134;2023-01-19T16:01:36;12.60;;;6.47;;
10063;SDS011;5071;52.360;13.134;2023-01-19T16:06:40;12.30;;;6.73;;
10063;SDS011;5071;52.360;13.134;2023-01-19T16:11:43;11.60;;;6.13;;
10063;SDS011;5071;52.360;13.134;2023-01-19T16:16:46;11.73;;;6.13;;
10063;SDS011;5071;52.360;13.134;2023-01-19T16:21:48;10.73;;;6.53;;
10063;SDS011;5071;52.360;13.134;2023-01-19T16:26:52;11.43;;;6.77;;
10063;SDS011;5071;52.360;13.134;2023-01-19T16:31:54;10.37;;;5.97;;
10063;SDS011;5071;52.360;13.134;2023-01-19T16:36:56;10.03;;;7.00;;
10063;SDS011;5071;52.360;13.134;2023-01-19T16:41:59;14.37;;;7.97;;
10063;SDS011;5071;52.360;13.134;2023-01-19T16:47:01;7.80;;;5.40;;
10063;SDS011;5071;52.360;13.134;2023-01-19T16:52:03;9.60;;;5.77;;
10063;SDS011;5071;52.360;13.134;2023-01-19T16:57:06;9.53;;;5.57;;
10063;SDS011;5071;52.360;13.134;2023-01-19T17:02:09;9.23;;;5.27;;
10063;SDS011;5071;52.360;13.134;2023-01-19T17:07:12;10.27;;;6.40;;
10063;SDS011;5071;52.360;13.134;2023-01-19T17:12:15;10.00;;;5.53;;
10063;SDS011;5071;52.360;13.134;2023-01-19T17:17:17;9.70;;;5.60;;
10063;SDS011;5071;52.360;13.134;2023-01-19T17:22:26;7.77;;;4.80;;
10063;SDS011;5071;52.360;13.134;2023-01-19T17:27:33;10.40;;;4.60;;
10063;SDS011;5071;52.360;13.134;2023-01-19T17:32:36;9.37;;;5.13;;
10063;SDS011;5071;52.360;13.134;2023-01-19T17:37:38;9.87;;;5.43;;
10063;SDS011;5071;52.360;13.134;2023-01-19T17:42:42;7.60;;;4.83;;
10063;SDS011;5071;52.360;13.134;2023-01-19T17:47:43;6.83;;;4.60;;
10063;SDS011;5071;52.360;13.134;2023-01-19T17:52:48;8.00;;;5.20;;
10063;SDS011;5071;52.360;13.134;2023-01-19T17:57:52;11.70;;;5.70;;
10063;SDS011;5071;52.360;13.134;2023-01-19T18:02:54;9.43;;;5.33;;
10063;SDS011;5071;52.360;13.134;2023-01-19T18:07:56;8.77;;;4.57;;
10063;SDS011;5071;52.360;13.134;2023-01-19T18:13:01;13.37;;;5.10;;
10063;SDS011;5071;52.360;13.134;2023-01-19T18:18:03;9.20;;;5.83;;
10063;SDS011;5071;52.360;13.134;2023-01-19T18:23:05;8.50;;;5.20;;
10063;SDS011;5071;52.360;13.134;2023-01-19T18:28:09;10.33;;;5.17;;
10063;SDS011;5071;52.360;13.134;2023-01-19T18:33:11;10.73;;;5.77;;
10063;SDS011;5071;52.360;13.134;2023-01-19T18:38:13;12.07;;;5.80;;
10063;SDS011;5071;52.360;13.134;2023-01-19T18:43:17;9.30;;;5.03;;
10063;SDS011;5071;52.360;13.134;2023-01-19T18:48:19;9.77;;;5.17;;
10063;SDS011;5071;52.360;13.134;2023-01-19T18:53:21;9.20;;;5.20;;
10063;SDS011;5071;52.360;13.134;2023-01-19T18:58:25;7.97;;;5.43;;
10063;SDS011;5071;52.360;13.134;2023-01-19T19:03:27;7.43;;;4.90;;
10063;SDS011;5071;52.360;13.134;2023-01-19T19:08:30;9.57;;;4.93;;
10063;SDS011;5071;52.360;13.134;2023-01-19T19:13:35;9.17;;;5.30;;
10063;SDS011;5071;52.360;13.134;2023-01-19T19:18:37;8.87;;;4.93;;
10063;SDS011;5071;52.360;13.134;2023-01-19T19:23:40;8.47;;;4.80;;
10063;SDS011;5071;52.360;13.134;2023-01-19T19:28:43;7.93;;;5.10;;
10063;SDS011;5071;52.360;13.134;2023-01-19T19:33:45;8.90;;;5.70;;
10063;SDS011;5071;52.360;13.134;2023-01-19T19:38:49;10.90;;;5.60;;
10063;SDS011;5071;52.360;13.134;2023-01-19T19:43:53;8.07;;;4.77;;
10063;SDS011;5071;52.360;13.134;2023-01-19T19:48:56;8.50;;;5.20;;
10063;SDS011;5071;52.360;13.134;2023-01-19T19:53:59;7.87;;;4.80;;
10063;SDS011;5071;52.360;13.134;2023-01-19T19:59:03;8.63;;;4.83;;
10063;SDS011;5071;52.360;13.134;2023-01-19T20:04:06;7.23;;;5.30;;
10063;SDS011;5071;52.360;13.134;2023-01-19T20:09:09;7.37;;;5.40;;
10063;SDS011;5071;52.360;13.134;2023-01-19T20:14:14;8.77;;;5.60;;
10063;SDS011;5071;52.360;13.134;2023-01-19T20:19:16;7.50;;;5.33;;
10063;SDS011;5071;52.360;13.134;2023-01-19T20:24:19;8.70;;;4.93;;
10063;SDS011;5071;52.360;13.134;2023-01-19T20:29:23;8.17;;;5.10;;
10063;SDS011;5071;52.360;13.134;2023-01-19T20:34:26;8.13;;;5.30;;
10063;SDS011;5071;52.360;13.134;2023-01-19T20:39:33;9.80;;;5.37;;
10063;SDS011;5071;52.360;13.134;2023-01-19T20:44:37;9.90;;;5.40;;
10063;SDS011;5071;52.360;13.134;2023-01-19T20:49:39;6.80;;;4.07;;
10063;SDS011;5071;52.360;13.134;2023-01-19T20:54:41;6.50;;;4.40;;
10063;SDS011;5071;52.360;13.134;2023-01-19T20:59:45;10.53;;;5.67;;
10063;SDS011;5071;52.360;13.134;2023-01-19T21:04:47;6.87;;;4.70;;
10063;SDS011;5071;52.360;13.134;2023-01-19T21:09:49;8.77;;;5.27;;
10063;SDS011;5071;52.360;13.134;2023-01-19T21:14:53;7.53;;;4.77;;
10063;SDS011;5071;52.360;13.134;2023-01-19T21:19:55;6.83;;;4.87;;
10063;SDS011;5071;52.360;13.134;2023-01-19T21:24:57;7.57;;;4.87;;
10063;SDS011;5071;52.360;13.134;2023-01-19T21:30:01;9.37;;;5.27;;
10063;SDS011;5071;52.360;13.134;2023-01-19T21:35:03;8.60;;;5.00;;
10063;SDS011;5071;52.360;13.134;2023-01-19T21:40:06;7.93;;;5.27;;
10063;SDS011;5071;52.360;13.134;2023-01-19T21:45:11;8.53;;;5.50;;
10063;SDS011;5071;52.360;13.134;2023-01-19T21:50:14;10.90;;;5.10;;
10063;SDS011;5071;52.360;13.134;2023-01-19T21:55:16;8.87;;;5.73;;
10063;SDS011;5071;52.360;13.134;2023-01-19T22:00:20;11.17;;;6.33;;
10063;SDS011;5071;52.360;13.134;2023-01-19T22:05:22;7.93;;;5.50;;
10063;SDS011;5071;52.360;13.134;2023-01-19T22:10:25;10.47;;;5.93;;
10063;SDS011;5071;52.360;13.134;2023-01-19T22:15:28;11.10;;;5.27;;
10063;SDS011;5071;52.360;13.134;2023-01-19T22:20:31;8.70;;;5.27;;
10063;SDS011;5071;52.360;13.134;2023-01-19T22:25:33;9.77;;;5.97;;
10063;SDS011;5071;52.360;13.134;2023-01-19T22:30:36;9.53;;;5.43;;
10063;SDS011;5071;52.360;13.134;2023-01-19T22:35:39;9.63;;;6.27;;
10063;SDS011;5071;52.360;13.134;2023-01-19T22:40:41;8.83;;;5.53;;
10063;SDS011;5071;52.360;13.134;2023-01-19T22:45:44;10.70;;;5.73;;
10063;SDS011;5071;52.360;13.134;2023-01-19T22:50:46;9.33;;;5.73;;
10063;SDS011;5071;52.360;13.134;2023-01-19T22:55:49;9.63;;;5.80;;
10063;SDS011;5071;52.360;13.134;2023-01-19T23:00:52;9.17;;;5.93;;
10063;SDS011;5071;52.360;13.134;2023-01-19T23:05:54;9.63;;;6.07;;
10063;SDS011;5071;52.360;13.134;2023-01-19T23:10:56;9.90;;;6.03;;
10063;SDS011;5071;52.360;13.134;2023-01-19T23:16:00;6.77;;;5.00;;
10063;SDS011;5071;52.360;13.134;2023-01-19T23:21:03;9.43;;;5.93;;
10063;SDS011;5071;52.360;13.134;2023-01-19T23:26:09;11.20;;;7.10;;
10063;SDS011;5071;52.360;13.134;2023-01-19T23:31:15;10.50;;;6.00;;
10063;SDS011;5071;52.360;13.134;2023-01-19T23:36:18;14.20;;;7.10;;
10063;SDS011;5071;52.360;13.134;2023-01-19T23:41:21;10.23;;;6.50;;
10063;SDS011;5071;52.360;13.134;2023-01-19T23:46:26;10.13;;;6.63;;
10063;SDS011;5071;52.360;13.134;2023-01-19T23:51:28;9.77;;;6.33;;
10063;SDS011;5071;52.360;13.134;2023-01-19T23:56:32;9.27;;;5.77;;
